sensor_id;sensor_type;location;lat;lon;timestamp;temperature;humidity
18335;DHT22;9293;49.524;10.964;2023-07-02T00:01:21;18.60;99.90
18335;DHT22;9293;49.524;10.964;2023-07-02T00:03:49;18.50;99.90
18335;DHT22;9293;49.524;10.964;2023-07-02T00:06:21;18.50;99.90
18335;DHT22;9293;49.524;10.964;2023-07-02T00:08:50;18.50;99.90
18335;DHT22;9293;49.524;10.964;2023-07-02T00:11:19;18.50;99.90
18335;DHT22;9293;49.524;10.964;2023-07-02T00:13:47;18.60;99.90
18335;DHT22;9293;49.524;10.964;2023-07-02T00:16:17;18.50;99.90
18335;DHT22;9293;49.524;10.964;2023-07-02T00:18:45;18.40;99.90
18335;DHT22;9293;49.524;10.964;2023-07-02T00:21:20;18.40;99.90
18335;DHT22;9293;49.524;10.964;2023-07-02T00:23:49;18.20;99.90
18335;DHT22;9293;49.524;10.964;2023-07-02T00:26:17;18.20;99.90
18335;DHT22;9293;49.524;10.964;2023-07-02T00:28:45;18.20;99.90
18335;DHT22;9293;49.524;10.964;2023-07-02T00:31:14;18.20;99.90
18335;DHT22;9293;49.524;10.964;2023-07-02T00:33:42;18.10;99.90
18335;DHT22;9293;49.524;10.964;2023-07-02T00:36:11;18.10;99.90
18335;DHT22;9293;49.524;10.964;2023-07-02T00:38:46;17.90;99.90
18335;DHT22;9293;49.524;10.964;2023-07-02T00:41:15;17.90;99.90
18335;DHT22;9293;49.524;10.964;2023-07-02T00:43:44;17.90;99.90
18335;DHT22;9293;49.524;10.964;2023-07-02T00:46:18;18.00;99.90
18335;DHT22;9293;49.524;10.964;2023-07-02T00:49:13;18.10;99.90
18335;DHT22;9293;49.524;10.964;2023-07-02T00:51:41;18.10;99.90
18335;DHT22;9293;49.524;10.964;2023-07-02T00:54:10;18.10;99.90
18335;DHT22;9293;49.524;10.964;2023-07-02T00:56:39;18.00;99.90
18335;DHT22;9293;49.524;10.964;2023-07-02T00:59:07;18.10;99.90
18335;DHT22;9293;49.524;10.964;2023-07-02T01:01:35;18.00;99.90
18335;DHT22;9293;49.524;10.964;2023-07-02T01:04:06;18.10;99.90
18335;DHT22;9293;49.524;10.964;2023-07-02T01:06:40;18.10;99.90
18335;DHT22;9293;49.524;10.964;2023-07-02T01:09:09;18.20;99.90
18335;DHT22;9293;49.524;10.964;2023-07-02T01:11:54;18.20;99.90
18335;DHT22;9293;49.524;10.964;2023-07-02T01:14:31;18.20;99.90
18335;DHT22;9293;49.524;10.964;2023-07-02T01:17:04;18.20;99.90
18335;DHT22;9293;49.524;10.964;2023-07-02T01:19:49;18.20;99.90
18335;DHT22;9293;49.524;10.964;2023-07-02T01:22:24;18.20;99.90
18335;DHT22;9293;49.524;10.964;2023-07-02T01:24:53;18.20;99.90
18335;DHT22;9293;49.524;10.964;2023-07-02T01:27:21;18.30;99.90
18335;DHT22;9293;49.524;10.964;2023-07-02T01:29:53;18.20;99.90
18335;DHT22;9293;49.524;10.964;2023-07-02T01:32:22;18.20;99.90
18335;DHT22;9293;49.524;10.964;2023-07-02T01:34:51;18.20;99.90
18335;DHT22;9293;49.524;10.964;2023-07-02T01:37:23;18.20;99.90
18335;DHT22;9293;49.524;10.964;2023-07-02T01:39:52;18.20;99.90
18335;DHT22;9293;49.524;10.964;2023-07-02T01:42:21;18.30;99.90
18335;DHT22;9293;49.524;10.964;2023-07-02T01:44:50;18.30;99.90
18335;DHT22;9293;49.524;10.964;2023-07-02T01:47:19;18.30;99.90
18335;DHT22;9293;49.524;10.964;2023-07-02T01:49:48;18.30;99.90
18335;DHT22;9293;49.524;10.964;2023-07-02T01:52:17;18.30;99.90
18335;DHT22;9293;49.524;10.964;2023-07-02T01:54:46;18.40;99.90
18335;DHT22;9293;49.524;10.964;2023-07-02T01:57:14;18.40;99.90
18335;DHT22;9293;49.524;10.964;2023-07-02T01:59:43;18.40;99.90
18335;DHT22;9293;49.524;10.964;2023-07-02T02:02:11;18.40;99.90
18335;DHT22;9293;49.524;10.964;2023-07-02T02:04:40;18.40;99.90
18335;DHT22;9293;49.524;10.964;2023-07-02T02:07:08;18.30;99.90
18335;DHT22;9293;49.524;10.964;2023-07-02T02:09:37;18.30;99.90
18335;DHT22;9293;49.524;10.964;2023-07-02T02:12:06;18.20;99.90
18335;DHT22;9293;49.524;10.964;2023-07-02T02:14:34;18.20;99.90
18335;DHT22;9293;49.524;10.964;2023-07-02T02:17:03;18.10;99.90
18335;DHT22;9293;49.524;10.964;2023-07-02T02:19:31;18.10;99.90
18335;DHT22;9293;49.524;10.964;2023-07-02T02:22:00;18.10;99.90
18335;DHT22;9293;49.524;10.964;2023-07-02T02:24:28;17.90;99.90
18335;DHT22;9293;49.524;10.964;2023-07-02T02:26:56;17.90;99.90
18335;DHT22;9293;49.524;10.964;2023-07-02T02:29:24;17.80;99.90
18335;DHT22;9293;49.524;10.964;2023-07-02T02:31:53;17.80;99.90
18335;DHT22;9293;49.524;10.964;2023-07-02T02:34:21;17.80;99.90
18335;DHT22;9293;49.524;10.964;2023-07-02T02:36:50;17.70;99.90
18335;DHT22;9293;49.524;10.964;2023-07-02T02:39:23;17.60;99.90
18335;DHT22;9293;49.524;10.964;2023-07-02T02:41:51;17.60;99.90
18335;DHT22;9293;49.524;10.964;2023-07-02T02:44:21;17.50;99.90
18335;DHT22;9293;49.524;10.964;2023-07-02T02:46:49;17.40;99.90
18335;DHT22;9293;49.524;10.964;2023-07-02T02:49:21;17.40;99.90
18335;DHT22;9293;49.524;10.964;2023-07-02T02:51:50;17.40;99.90
18335;DHT22;9293;49.524;10.964;2023-07-02T02:54:19;17.40;99.90
18335;DHT22;9293;49.524;10.964;2023-07-02T02:56:47;17.40;99.90
18335;DHT22;9293;49.524;10.964;2023-07-02T02:59:15;17.30;99.90
18335;DHT22;9293;49.524;10.964;2023-07-02T03:01:44;17.30;99.90
18335;DHT22;9293;49.524;10.964;2023-07-02T03:04:14;17.30;99.90
18335;DHT22;9293;49.524;10.964;2023-07-02T03:06:43;17.40;99.90
18335;DHT22;9293;49.524;10.964;2023-07-02T03:09:14;17.40;99.90
18335;DHT22;9293;49.524;10.964;2023-07-02T03:11:43;17.40;99.90
18335;DHT22;9293;49.524;10.964;2023-07-02T03:14:11;17.40;99.90
18335;DHT22;9293;49.524;10.964;2023-07-02T03:16:39;17.40;99.90
18335;DHT22;9293;49.524;10.964;2023-07-02T03:19:08;17.40;99.90
18335;DHT22;9293;49.524;10.964;2023-07-02T03:21:36;17.40;99.90
18335;DHT22;9293;49.524;10.964;2023-07-02T03:24:05;17.30;99.90
18335;DHT22;9293;49.524;10.964;2023-07-02T03:26:33;17.20;99.90
18335;DHT22;9293;49.524;10.964;2023-07-02T03:29:01;17.20;99.90
18335;DHT22;9293;49.524;10.964;2023-07-02T03:31:30;17.20;99.90
18335;DHT22;9293;49.524;10.964;2023-07-02T03:33:59;17.20;99.90
18335;DHT22;9293;49.524;10.964;2023-07-02T03:36:28;17.20;99.90
18335;DHT22;9293;49.524;10.964;2023-07-02T03:38:56;17.10;99.90
18335;DHT22;9293;49.524;10.964;2023-07-02T03:41:24;17.10;99.90
18335;DHT22;9293;49.524;10.964;2023-07-02T03:43:53;17.10;99.90
18335;DHT22;9293;49.524;10.964;2023-07-02T03:46:21;17.00;99.90
18335;DHT22;9293;49.524;10.964;2023-07-02T03:48:49;17.10;99.90
18335;DHT22;9293;49.524;10.964;2023-07-02T03:51:18;17.10;99.90
18335;DHT22;9293;49.524;10.964;2023-07-02T03:53:46;17.10;99.90
18335;DHT22;9293;49.524;10.964;2023-07-02T03:56:15;17.20;99.90
18335;DHT22;9293;49.524;10.964;2023-07-02T03:58:43;17.10;99.90
18335;DHT22;9293;49.524;10.964;2023-07-02T04:01:11;17.10;99.90
18335;DHT22;9293;49.524;10.964;2023-07-02T04:03:47;17.10;99.90
18335;DHT22;9293;49.524;10.964;2023-07-02T04:06:19;17.00;99.90
18335;DHT22;9293;49.524;10.964;2023-07-02T04:08:48;17.00;99.90
18335;DHT22;9293;49.524;10.964;2023-07-02T04:11:18;17.00;99.90
18335;DHT22;9293;49.524;10.964;2023-07-02T04:13:50;17.00;99.90
18335;DHT22;9293;49.524;10.964;2023-07-02T04:16:18;17.10;99.90
18335;DHT22;9293;49.524;10.964;2023-07-02T04:18:47;17.10;99.90
18335;DHT22;9293;49.524;10.964;2023-07-02T04:21:15;17.20;99.90
18335;DHT22;9293;49.524;10.964;2023-07-02T04:23:45;17.30;99.90
18335;DHT22;9293;49.524;10.964;2023-07-02T04:26:14;17.30;99.90
18335;DHT22;9293;49.524;10.964;2023-07-02T04:29:02;17.30;99.90
18335;DHT22;9293;49.524;10.964;2023-07-02T04:31:30;17.20;99.90
18335;DHT22;9293;49.524;10.964;2023-07-02T04:33:59;17.30;99.90
18335;DHT22;9293;49.524;10.964;2023-07-02T04:36:27;17.30;99.90
18335;DHT22;9293;49.524;10.964;2023-07-02T04:38:56;17.30;99.90
18335;DHT22;9293;49.524;10.964;2023-07-02T04:41:25;17.30;99.90
18335;DHT22;9293;49.524;10.964;2023-07-02T04:43:53;17.40;99.90
18335;DHT22;9293;49.524;10.964;2023-07-02T04:46:22;17.40;99.90
18335;DHT22;9293;49.524;10.964;2023-07-02T04:48:50;17.50;99.90
18335;DHT22;9293;49.524;10.964;2023-07-02T04:51:19;17.50;99.90
18335;DHT22;9293;49.524;10.964;2023-07-02T04:53:48;17.60;99.90
18335;DHT22;9293;49.524;10.964;2023-07-02T04:56:16;17.70;99.90
18335;DHT22;9293;49.524;10.964;2023-07-02T04:58:45;17.70;99.90
18335;DHT22;9293;49.524;10.964;2023-07-02T05:01:14;17.80;99.90
18335;DHT22;9293;49.524;10.964;2023-07-02T05:03:42;17.80;99.90
18335;DHT22;9293;49.524;10.964;2023-07-02T05:06:13;17.90;99.90
18335;DHT22;9293;49.524;10.964;2023-07-02T05:08:50;17.90;99.90
18335;DHT22;9293;49.524;10.964;2023-07-02T05:11:21;17.90;99.90
18335;DHT22;9293;49.524;10.964;2023-07-02T05:13:49;17.90;99.90
18335;DHT22;9293;49.524;10.964;2023-07-02T05:16:21;17.80;99.90
18335;DHT22;9293;49.524;10.964;2023-07-02T05:18:50;17.80;99.90
18335;DHT22;9293;49.524;10.964;2023-07-02T05:21:18;17.90;99.90
18335;DHT22;9293;49.524;10.964;2023-07-02T05:23:47;17.90;99.90
18335;DHT22;9293;49.524;10.964;2023-07-02T05:26:16;18.00;99.90
18335;DHT22;9293;49.524;10.964;2023-07-02T05:28:45;18.00;99.90
18335;DHT22;9293;49.524;10.964;2023-07-02T05:31:14;18.00;99.90
18335;DHT22;9293;49.524;10.964;2023-07-02T05:33:42;18.10;99.90
18335;DHT22;9293;49.524;10.964;2023-07-02T05:36:10;18.10;99.90
18335;DHT22;9293;49.524;10.964;2023-07-02T05:38:39;18.10;99.90
18335;DHT22;9293;49.524;10.964;2023-07-02T05:41:07;18.10;99.90
18335;DHT22;9293;49.524;10.964;2023-07-02T05:43:35;18.20;99.90
18335;DHT22;9293;49.524;10.964;2023-07-02T05:46:04;18.30;99.90
18335;DHT22;9293;49.524;10.964;2023-07-02T05:48:33;18.30;99.90
18335;DHT22;9293;49.524;10.964;2023-07-02T05:51:02;18.20;99.90
18335;DHT22;9293;49.524;10.964;2023-07-02T05:53:31;18.20;99.90
18335;DHT22;9293;49.524;10.964;2023-07-02T05:55:59;18.20;99.90
18335;DHT22;9293;49.524;10.964;2023-07-02T05:58:32;18.10;99.90
18335;DHT22;9293;49.524;10.964;2023-07-02T06:01:13;18.10;99.90
18335;DHT22;9293;49.524;10.964;2023-07-02T06:03:45;18.20;99.90
18335;DHT22;9293;49.524;10.964;2023-07-02T06:06:13;18.40;99.90
18335;DHT22;9293;49.524;10.964;2023-07-02T06:08:42;18.50;99.90
18335;DHT22;9293;49.524;10.964;2023-07-02T06:11:15;18.70;99.90
18335;DHT22;9293;49.524;10.964;2023-07-02T06:13:44;18.70;99.90
18335;DHT22;9293;49.524;10.964;2023-07-02T06:16:20;18.60;99.90
18335;DHT22;9293;49.524;10.964;2023-07-02T06:18:51;18.70;99.90
18335;DHT22;9293;49.524;10.964;2023-07-02T06:21:21;18.60;99.90
18335;DHT22;9293;49.524;10.964;2023-07-02T06:23:49;18.70;99.90
18335;DHT22;9293;49.524;10.964;2023-07-02T06:26:18;18.90;99.90
18335;DHT22;9293;49.524;10.964;2023-07-02T06:28:54;19.00;99.90
18335;DHT22;9293;49.524;10.964;2023-07-02T06:31:24;19.10;99.90
18335;DHT22;9293;49.524;10.964;2023-07-02T06:34:01;19.30;99.90
18335;DHT22;9293;49.524;10.964;2023-07-02T06:36:50;19.30;99.90
18335;DHT22;9293;49.524;10.964;2023-07-02T06:39:21;19.30;99.90
18335;DHT22;9293;49.524;10.964;2023-07-02T06:41:51;19.40;99.90
18335;DHT22;9293;49.524;10.964;2023-07-02T06:44:27;19.40;99.90
18335;DHT22;9293;49.524;10.964;2023-07-02T06:46:55;19.40;99.90
18335;DHT22;9293;49.524;10.964;2023-07-02T06:49:26;19.60;99.90
18335;DHT22;9293;49.524;10.964;2023-07-02T06:51:54;19.60;99.90
18335;DHT22;9293;49.524;10.964;2023-07-02T06:54:22;19.60;99.90
18335;DHT22;9293;49.524;10.964;2023-07-02T06:56:50;19.80;99.90
18335;DHT22;9293;49.524;10.964;2023-07-02T06:59:22;19.90;99.90
18335;DHT22;9293;49.524;10.964;2023-07-02T07:01:50;20.10;99.90
18335;DHT22;9293;49.524;10.964;2023-07-02T07:04:19;20.20;99.90
18335;DHT22;9293;49.524;10.964;2023-07-02T07:06:47;20.30;99.90
18335;DHT22;9293;49.524;10.964;2023-07-02T07:09:15;20.20;99.90
18335;DHT22;9293;49.524;10.964;2023-07-02T07:11:43;20.40;99.90
18335;DHT22;9293;49.524;10.964;2023-07-02T07:14:11;20.50;99.90
18335;DHT22;9293;49.524;10.964;2023-07-02T07:16:40;20.50;99.90
18335;DHT22;9293;49.524;10.964;2023-07-02T07:19:08;20.50;99.90
18335;DHT22;9293;49.524;10.964;2023-07-02T07:21:36;20.40;99.90
18335;DHT22;9293;49.524;10.964;2023-07-02T07:24:05;20.20;99.90
18335;DHT22;9293;49.524;10.964;2023-07-02T07:26:33;19.90;99.90
18335;DHT22;9293;49.524;10.964;2023-07-02T07:29:01;20.00;99.90
18335;DHT22;9293;49.524;10.964;2023-07-02T07:31:30;20.20;99.90
18335;DHT22;9293;49.524;10.964;2023-07-02T07:33:58;20.30;99.90
18335;DHT22;9293;49.524;10.964;2023-07-02T07:36:26;20.90;99.90
18335;DHT22;9293;49.524;10.964;2023-07-02T07:38:54;21.10;99.90
18335;DHT22;9293;49.524;10.964;2023-07-02T07:41:26;21.40;99.90
18335;DHT22;9293;49.524;10.964;2023-07-02T07:43:54;21.50;99.90
18335;DHT22;9293;49.524;10.964;2023-07-02T07:46:23;21.50;99.90
18335;DHT22;9293;49.524;10.964;2023-07-02T07:48:51;21.30;99.90
18335;DHT22;9293;49.524;10.964;2023-07-02T07:51:19;21.10;99.90
18335;DHT22;9293;49.524;10.964;2023-07-02T07:53:48;20.80;99.90
18335;DHT22;9293;49.524;10.964;2023-07-02T07:56:16;20.60;99.90
18335;DHT22;9293;49.524;10.964;2023-07-02T07:58:45;20.50;99.90
18335;DHT22;9293;49.524;10.964;2023-07-02T08:01:13;20.30;99.90
18335;DHT22;9293;49.524;10.964;2023-07-02T08:03:41;20.60;99.90
18335;DHT22;9293;49.524;10.964;2023-07-02T08:06:10;20.70;99.90
18335;DHT22;9293;49.524;10.964;2023-07-02T08:08:38;20.80;99.90
18335;DHT22;9293;49.524;10.964;2023-07-02T08:11:06;21.20;99.90
18335;DHT22;9293;49.524;10.964;2023-07-02T08:13:34;21.70;99.90
18335;DHT22;9293;49.524;10.964;2023-07-02T08:16:03;22.30;99.90
18335;DHT22;9293;49.524;10.964;2023-07-02T08:18:31;22.80;99.90
18335;DHT22;9293;49.524;10.964;2023-07-02T08:20:59;23.10;99.90
18335;DHT22;9293;49.524;10.964;2023-07-02T08:23:27;23.30;99.90
18335;DHT22;9293;49.524;10.964;2023-07-02T08:25:56;23.40;99.90
18335;DHT22;9293;49.524;10.964;2023-07-02T08:28:24;23.30;99.90
18335;DHT22;9293;49.524;10.964;2023-07-02T08:30:58;22.90;99.90
18335;DHT22;9293;49.524;10.964;2023-07-02T08:33:36;22.40;99.90
18335;DHT22;9293;49.524;10.964;2023-07-02T08:36:08;21.80;99.90
18335;DHT22;9293;49.524;10.964;2023-07-02T08:38:36;21.90;99.90
18335;DHT22;9293;49.524;10.964;2023-07-02T08:41:09;22.40;99.90
18335;DHT22;9293;49.524;10.964;2023-07-02T08:43:41;23.00;99.90
18335;DHT22;9293;49.524;10.964;2023-07-02T08:46:11;23.00;99.90
18335;DHT22;9293;49.524;10.964;2023-07-02T08:48:40;23.10;99.90
18335;DHT22;9293;49.524;10.964;2023-07-02T08:51:08;23.20;99.90
18335;DHT22;9293;49.524;10.964;2023-07-02T08:53:39;23.60;99.90
18335;DHT22;9293;49.524;10.964;2023-07-02T08:56:11;23.90;99.90
18335;DHT22;9293;49.524;10.964;2023-07-02T08:58:39;23.50;99.90
18335;DHT22;9293;49.524;10.964;2023-07-02T09:01:11;22.90;99.90
18335;DHT22;9293;49.524;10.964;2023-07-02T09:03:40;22.60;99.90
18335;DHT22;9293;49.524;10.964;2023-07-02T09:06:09;22.60;99.90
18335;DHT22;9293;49.524;10.964;2023-07-02T09:08:38;23.10;99.90
18335;DHT22;9293;49.524;10.964;2023-07-02T09:11:13;23.50;99.90
18335;DHT22;9293;49.524;10.964;2023-07-02T09:13:48;23.20;99.90
18335;DHT22;9293;49.524;10.964;2023-07-02T09:16:23;22.90;99.90
18335;DHT22;9293;49.524;10.964;2023-07-02T09:18:58;23.00;99.90
18335;DHT22;9293;49.524;10.964;2023-07-02T09:21:43;23.60;99.90
18335;DHT22;9293;49.524;10.964;2023-07-02T09:24:13;24.20;99.90
18335;DHT22;9293;49.524;10.964;2023-07-02T09:26:46;23.90;99.90
18335;DHT22;9293;49.524;10.964;2023-07-02T09:29:17;23.80;99.90
18335;DHT22;9293;49.524;10.964;2023-07-02T09:31:46;23.60;99.90
18335;DHT22;9293;49.524;10.964;2023-07-02T09:34:30;23.30;99.90
18335;DHT22;9293;49.524;10.964;2023-07-02T09:36:59;23.10;99.90
18335;DHT22;9293;49.524;10.964;2023-07-02T09:39:38;23.40;99.90
18335;DHT22;9293;49.524;10.964;2023-07-02T09:42:07;23.40;99.90
18335;DHT22;9293;49.524;10.964;2023-07-02T09:44:35;23.30;99.90
18335;DHT22;9293;49.524;10.964;2023-07-02T09:49:36;22.90;99.90
18335;DHT22;9293;49.524;10.964;2023-07-02T09:52:05;23.10;99.90
18335;DHT22;9293;49.524;10.964;2023-07-02T09:54:34;23.50;99.90
18335;DHT22;9293;49.524;10.964;2023-07-02T09:57:03;23.60;99.90
18335;DHT22;9293;49.524;10.964;2023-07-02T09:59:32;23.60;99.90
18335;DHT22;9293;49.524;10.964;2023-07-02T10:02:00;23.50;99.90
18335;DHT22;9293;49.524;10.964;2023-07-02T10:04:38;23.50;99.90
18335;DHT22;9293;49.524;10.964;2023-07-02T10:07:07;23.30;99.90
18335;DHT22;9293;49.524;10.964;2023-07-02T10:09:39;23.20;99.90
18335;DHT22;9293;49.524;10.964;2023-07-02T10:12:18;23.10;99.90
18335;DHT22;9293;49.524;10.964;2023-07-02T10:14:47;23.00;99.90
18335;DHT22;9293;49.524;10.964;2023-07-02T10:17:28;23.10;99.90
18335;DHT22;9293;49.524;10.964;2023-07-02T10:20:02;23.50;99.90
18335;DHT22;9293;49.524;10.964;2023-07-02T10:22:45;23.80;99.90
18335;DHT22;9293;49.524;10.964;2023-07-02T10:25:25;24.10;99.90
18335;DHT22;9293;49.524;10.964;2023-07-02T10:27:58;24.50;99.90
18335;DHT22;9293;49.524;10.964;2023-07-02T10:30:32;24.90;99.90
18335;DHT22;9293;49.524;10.964;2023-07-02T10:33:11;25.10;99.90
18335;DHT22;9293;49.524;10.964;2023-07-02T10:35:40;24.80;99.90
18335;DHT22;9293;49.524;10.964;2023-07-02T10:38:13;24.90;99.90
18335;DHT22;9293;49.524;10.964;2023-07-02T10:40:45;25.00;99.90
18335;DHT22;9293;49.524;10.964;2023-07-02T10:43:23;25.10;99.90
18335;DHT22;9293;49.524;10.964;2023-07-02T10:45:56;25.30;99.90
18335;DHT22;9293;49.524;10.964;2023-07-02T10:48:25;25.10;99.90
18335;DHT22;9293;49.524;10.964;2023-07-02T10:50:53;24.80;99.90
18335;DHT22;9293;49.524;10.964;2023-07-02T10:53:22;24.90;99.90
18335;DHT22;9293;49.524;10.964;2023-07-02T10:55:54;25.10;99.90
18335;DHT22;9293;49.524;10.964;2023-07-02T10:58:27;25.20;99.90
18335;DHT22;9293;49.524;10.964;2023-07-02T11:00:55;25.00;99.90
18335;DHT22;9293;49.524;10.964;2023-07-02T11:03:24;24.50;99.90
18335;DHT22;9293;49.524;10.964;2023-07-02T11:05:54;24.30;99.90
18335;DHT22;9293;49.524;10.964;2023-07-02T11:08:34;24.20;99.90
18335;DHT22;9293;49.524;10.964;2023-07-02T11:11:04;24.10;99.90
18335;DHT22;9293;49.524;10.964;2023-07-02T11:13:32;24.40;99.90
18335;DHT22;9293;49.524;10.964;2023-07-02T11:16:04;24.90;99.90
18335;DHT22;9293;49.524;10.964;2023-07-02T11:18:32;25.20;99.90
18335;DHT22;9293;49.524;10.964;2023-07-02T11:21:08;25.30;99.90
18335;DHT22;9293;49.524;10.964;2023-07-02T11:23:40;25.00;99.90
18335;DHT22;9293;49.524;10.964;2023-07-02T11:26:12;25.20;99.90
18335;DHT22;9293;49.524;10.964;2023-07-02T11:28:50;25.70;99.90
18335;DHT22;9293;49.524;10.964;2023-07-02T11:31:25;25.80;99.90
18335;DHT22;9293;49.524;10.964;2023-07-02T11:33:57;26.20;99.90
18335;DHT22;9293;49.524;10.964;2023-07-02T11:36:28;26.30;99.00
18335;DHT22;9293;49.524;10.964;2023-07-02T11:38:57;26.00;99.00
18335;DHT22;9293;49.524;10.964;2023-07-02T11:41:35;26.00;99.60
18335;DHT22;9293;49.524;10.964;2023-07-02T11:44:04;26.10;99.90
18335;DHT22;9293;49.524;10.964;2023-07-02T11:46:33;26.00;99.40
18335;DHT22;9293;49.524;10.964;2023-07-02T11:49:03;25.80;99.20
18335;DHT22;9293;49.524;10.964;2023-07-02T11:51:38;25.90;98.00
18335;DHT22;9293;49.524;10.964;2023-07-02T11:54:06;26.10;97.20
18335;DHT22;9293;49.524;10.964;2023-07-02T11:56:35;25.90;97.60
18335;DHT22;9293;49.524;10.964;2023-07-02T11:59:04;25.90;97.10
18335;DHT22;9293;49.524;10.964;2023-07-02T12:01:32;26.10;96.50
18335;DHT22;9293;49.524;10.964;2023-07-02T12:04:00;26.40;97.00
18335;DHT22;9293;49.524;10.964;2023-07-02T12:06:31;27.00;97.20
18335;DHT22;9293;49.524;10.964;2023-07-02T12:09:03;27.40;96.20
18335;DHT22;9293;49.524;10.964;2023-07-02T12:11:31;27.40;95.00
18335;DHT22;9293;49.524;10.964;2023-07-02T12:13:59;26.90;95.30
18335;DHT22;9293;49.524;10.964;2023-07-02T12:16:28;26.20;95.40
18335;DHT22;9293;49.524;10.964;2023-07-02T12:19:02;26.20;95.40
18335;DHT22;9293;49.524;10.964;2023-07-02T12:22:04;25.80;95.50
18335;DHT22;9293;49.524;10.964;2023-07-02T12:24:38;25.30;95.80
18335;DHT22;9293;49.524;10.964;2023-07-02T12:27:06;25.60;95.20
18335;DHT22;9293;49.524;10.964;2023-07-02T12:29:39;25.90;95.50
18335;DHT22;9293;49.524;10.964;2023-07-02T12:32:07;26.20;95.00
18335;DHT22;9293;49.524;10.964;2023-07-02T12:34:39;26.50;94.80
18335;DHT22;9293;49.524;10.964;2023-07-02T12:37:10;26.50;94.50
18335;DHT22;9293;49.524;10.964;2023-07-02T12:39:41;26.20;95.40
18335;DHT22;9293;49.524;10.964;2023-07-02T12:42:15;26.30;94.90
18335;DHT22;9293;49.524;10.964;2023-07-02T12:44:44;26.10;95.40
18335;DHT22;9293;49.524;10.964;2023-07-02T12:47:26;25.80;95.60
18335;DHT22;9293;49.524;10.964;2023-07-02T12:50:02;25.70;96.00
18335;DHT22;9293;49.524;10.964;2023-07-02T12:52:47;25.60;95.70
18335;DHT22;9293;49.524;10.964;2023-07-02T12:55:23;25.70;95.50
18335;DHT22;9293;49.524;10.964;2023-07-02T12:58:09;25.60;95.90
18335;DHT22;9293;49.524;10.964;2023-07-02T13:00:37;25.70;95.00
18335;DHT22;9293;49.524;10.964;2023-07-02T13:03:11;25.40;94.80
18335;DHT22;9293;49.524;10.964;2023-07-02T13:05:41;25.50;96.40
18335;DHT22;9293;49.524;10.964;2023-07-02T13:08:09;25.70;95.20
18335;DHT22;9293;49.524;10.964;2023-07-02T13:10:39;25.70;94.10
18335;DHT22;9293;49.524;10.964;2023-07-02T13:13:08;25.80;94.20
18335;DHT22;9293;49.524;10.964;2023-07-02T13:16:29;25.60;94.40
18335;DHT22;9293;49.524;10.964;2023-07-02T13:19:22;25.60;95.20
18335;DHT22;9293;49.524;10.964;2023-07-02T13:22:10;25.70;95.40
18335;DHT22;9293;49.524;10.964;2023-07-02T13:24:52;26.20;94.90
18335;DHT22;9293;49.524;10.964;2023-07-02T13:27:35;26.60;94.10
18335;DHT22;9293;49.524;10.964;2023-07-02T13:30:06;26.70;92.80
18335;DHT22;9293;49.524;10.964;2023-07-02T13:32:37;26.80;92.70
18335;DHT22;9293;49.524;10.964;2023-07-02T13:35:07;27.00;92.40
18335;DHT22;9293;49.524;10.964;2023-07-02T13:37:37;26.90;92.90
18335;DHT22;9293;49.524;10.964;2023-07-02T13:40:13;26.90;92.10
18335;DHT22;9293;49.524;10.964;2023-07-02T13:42:44;26.70;92.50
18335;DHT22;9293;49.524;10.964;2023-07-02T13:45:12;26.90;92.60
18335;DHT22;9293;49.524;10.964;2023-07-02T13:47:43;26.50;91.90
18335;DHT22;9293;49.524;10.964;2023-07-02T13:50:12;26.20;91.70
18335;DHT22;9293;49.524;10.964;2023-07-02T13:52:41;26.50;92.30
18335;DHT22;9293;49.524;10.964;2023-07-02T13:55:15;26.70;91.20
18335;DHT22;9293;49.524;10.964;2023-07-02T13:57:44;27.00;91.90
18335;DHT22;9293;49.524;10.964;2023-07-02T14:00:12;27.00;91.10
18335;DHT22;9293;49.524;10.964;2023-07-02T14:02:42;26.80;92.10
18335;DHT22;9293;49.524;10.964;2023-07-02T14:05:12;26.40;91.80
18335;DHT22;9293;49.524;10.964;2023-07-02T14:07:49;26.50;91.50
18335;DHT22;9293;49.524;10.964;2023-07-02T14:10:22;26.60;91.30
18335;DHT22;9293;49.524;10.964;2023-07-02T14:12:51;26.80;91.40
18335;DHT22;9293;49.524;10.964;2023-07-02T14:15:21;27.00;91.80
18335;DHT22;9293;49.524;10.964;2023-07-02T14:18:02;27.20;92.40
18335;DHT22;9293;49.524;10.964;2023-07-02T14:20:32;27.40;91.20
18335;DHT22;9293;49.524;10.964;2023-07-02T14:23:01;27.30;91.30
18335;DHT22;9293;49.524;10.964;2023-07-02T14:25:32;27.20;92.00
18335;DHT22;9293;49.524;10.964;2023-07-02T14:28:22;27.40;91.20
18335;DHT22;9293;49.524;10.964;2023-07-02T14:30:59;27.10;90.90
18335;DHT22;9293;49.524;10.964;2023-07-02T14:33:33;27.00;90.70
18335;DHT22;9293;49.524;10.964;2023-07-02T14:36:09;26.40;91.70
18335;DHT22;9293;49.524;10.964;2023-07-02T14:38:48;26.20;91.20
18335;DHT22;9293;49.524;10.964;2023-07-02T14:41:18;26.60;92.00
18335;DHT22;9293;49.524;10.964;2023-07-02T14:44:09;26.60;91.20
18335;DHT22;9293;49.524;10.964;2023-07-02T14:47:22;26.50;90.70
18335;DHT22;9293;49.524;10.964;2023-07-02T14:50:27;26.30;91.90
18335;DHT22;9293;49.524;10.964;2023-07-02T14:53:25;26.40;92.30
18335;DHT22;9293;49.524;10.964;2023-07-02T14:56:06;26.60;91.60
18335;DHT22;9293;49.524;10.964;2023-07-02T14:58:46;26.60;91.30
18335;DHT22;9293;49.524;10.964;2023-07-02T15:02:00;26.40;92.20
18335;DHT22;9293;49.524;10.964;2023-07-02T15:08:33;25.90;92.30
18335;DHT22;9293;49.524;10.964;2023-07-02T15:11:40;26.20;92.20
18335;DHT22;9293;49.524;10.964;2023-07-02T15:14:44;26.50;91.00
18335;DHT22;9293;49.524;10.964;2023-07-02T15:17:42;26.20;91.10
18335;DHT22;9293;49.524;10.964;2023-07-02T15:20:33;26.20;91.50
18335;DHT22;9293;49.524;10.964;2023-07-02T15:34:20;27.10;90.10
18335;DHT22;9293;49.524;10.964;2023-07-02T15:37:08;27.00;90.10
18335;DHT22;9293;49.524;10.964;2023-07-02T15:39:40;27.10;89.20
18335;DHT22;9293;49.524;10.964;2023-07-02T15:42:15;27.20;90.20
18335;DHT22;9293;49.524;10.964;2023-07-02T15:44:46;26.90;90.70
18335;DHT22;9293;49.524;10.964;2023-07-02T15:47:17;26.50;90.60
18335;DHT22;9293;49.524;10.964;2023-07-02T15:49:51;26.20;90.90
18335;DHT22;9293;49.524;10.964;2023-07-02T15:52:19;26.50;90.60
18335;DHT22;9293;49.524;10.964;2023-07-02T15:54:49;26.60;90.50
18335;DHT22;9293;49.524;10.964;2023-07-02T15:57:19;26.70;90.40
18335;DHT22;9293;49.524;10.964;2023-07-02T15:59:57;26.60;90.30
18335;DHT22;9293;49.524;10.964;2023-07-02T16:02:40;26.60;90.90
18335;DHT22;9293;49.524;10.964;2023-07-02T16:05:13;26.50;90.60
18335;DHT22;9293;49.524;10.964;2023-07-02T16:07:50;26.30;91.10
18335;DHT22;9293;49.524;10.964;2023-07-02T16:10:22;26.10;91.00
18335;DHT22;9293;49.524;10.964;2023-07-02T16:12:51;26.20;91.30
18335;DHT22;9293;49.524;10.964;2023-07-02T16:15:24;25.80;91.00
18335;DHT22;9293;49.524;10.964;2023-07-02T16:17:52;25.60;91.10